sensor_id;sensor_type;location;lat;lon;timestamp;P1;durP1;ratioP1;P2;durP2;ratioP2
9884;SDS011;4981;50.966;4.842;2022-12-10T00:01:26;36.40;;;21.90;;
9884;SDS011;4981;50.966;4.842;2022-12-10T00:03:54;42.10;;;22.70;;
9884;SDS011;4981;50.966;4.842;2022-12-10T00:06:22;39.77;;;22.80;;
9884;SDS011;4981;50.966;4.842;2022-12-10T00:08:50;38.13;;;21.60;;
9884;SDS011;4981;50.966;4.842;2022-12-10T00:11:19;38.30;;;21.87;;
9884;SDS011;4981;50.966;4.842;2022-12-10T00:13:48;41.80;;;24.90;;
9884;SDS011;4981;50.966;4.842;2022-12-10T00:16:17;45.57;;;24.50;;
9884;SDS011;4981;50.966;4.842;2022-12-10T00:18:47;44.67;;;25.60;;
9884;SDS011;4981;50.966;4.842;2022-12-10T00:21:15;43.30;;;24.60;;
9884;SDS011;4981;50.966;4.842;2022-12-10T00:23:43;39.80;;;23.53;;
9884;SDS011;4981;50.966;4.842;2022-12-10T00:26:11;45.77;;;24.83;;
9884;SDS011;4981;50.966;4.842;2022-12-10T00:28:42;37.27;;;20.83;;
9884;SDS011;4981;50.966;4.842;2022-12-10T00:31:11;35.27;;;19.87;;
9884;SDS011;4981;50.966;4.842;2022-12-10T00:33:40;35.63;;;21.07;;
9884;SDS011;4981;50.966;4.842;2022-12-10T00:36:09;41.30;;;23.17;;
9884;SDS011;4981;50.966;4.842;2022-12-10T00:38:38;41.00;;;21.73;;
9884;SDS011;4981;50.966;4.842;2022-12-10T00:41:06;44.33;;;23.03;;
9884;SDS011;4981;50.966;4.842;2022-12-10T00:43:33;35.87;;;21.83;;
9884;SDS011;4981;50.966;4.842;2022-12-10T00:46:02;37.63;;;21.03;;
9884;SDS011;4981;50.966;4.842;2022-12-10T00:48:30;38.17;;;22.57;;
9884;SDS011;4981;50.966;4.842;2022-12-10T00:50:58;37.93;;;21.57;;
9884;SDS011;4981;50.966;4.842;2022-12-10T00:53:27;39.50;;;21.80;;
9884;SDS011;4981;50.966;4.842;2022-12-10T00:55:56;40.00;;;22.03;;
9884;SDS011;4981;50.966;4.842;2022-12-10T00:58:25;38.53;;;22.10;;
9884;SDS011;4981;50.966;4.842;2022-12-10T01:00:53;39.10;;;21.73;;
9884;SDS011;4981;50.966;4.842;2022-12-10T01:03:22;39.80;;;23.17;;
9884;SDS011;4981;50.966;4.842;2022-12-10T01:05:49;37.70;;;21.40;;
9884;SDS011;4981;50.966;4.842;2022-12-10T01:08:17;40.03;;;22.20;;
9884;SDS011;4981;50.966;4.842;2022-12-10T01:10:45;39.53;;;22.37;;
9884;SDS011;4981;50.966;4.842;2022-12-10T01:13:18;42.40;;;22.93;;
9884;SDS011;4981;50.966;4.842;2022-12-10T01:15:45;36.77;;;21.10;;
9884;SDS011;4981;50.966;4.842;2022-12-10T01:18:12;40.43;;;21.83;;
9884;SDS011;4981;50.966;4.842;2022-12-10T01:20:41;40.90;;;24.03;;
9884;SDS011;4981;50.966;4.842;2022-12-10T01:23:08;41.73;;;22.27;;
9884;SDS011;4981;50.966;4.842;2022-12-10T01:25:36;40.90;;;23.20;;
9884;SDS011;4981;50.966;4.842;2022-12-10T01:28:03;41.43;;;23.13;;
9884;SDS011;4981;50.966;4.842;2022-12-10T01:30:30;40.00;;;21.73;;
9884;SDS011;4981;50.966;4.842;2022-12-10T01:32:58;38.63;;;20.63;;
9884;SDS011;4981;50.966;4.842;2022-12-10T01:35:25;38.47;;;21.90;;
9884;SDS011;4981;50.966;4.842;2022-12-10T01:37:54;38.97;;;20.37;;
9884;SDS011;4981;50.966;4.842;2022-12-10T01:40:21;34.57;;;20.40;;
9884;SDS011;4981;50.966;4.842;2022-12-10T01:42:48;34.93;;;20.07;;
9884;SDS011;4981;50.966;4.842;2022-12-10T01:45:15;36.23;;;19.87;;
9884;SDS011;4981;50.966;4.842;2022-12-10T01:47:44;35.87;;;20.07;;
9884;SDS011;4981;50.966;4.842;2022-12-10T01:50:11;31.50;;;18.23;;
9884;SDS011;4981;50.966;4.842;2022-12-10T01:52:39;39.03;;;20.03;;
9884;SDS011;4981;50.966;4.842;2022-12-10T01:58:06;38.03;;;22.07;;
9884;SDS011;4981;50.966;4.842;2022-12-10T02:00:34;40.13;;;21.43;;
9884;SDS011;4981;50.966;4.842;2022-12-10T02:03:07;40.17;;;22.23;;
9884;SDS011;4981;50.966;4.842;2022-12-10T02:05:40;39.10;;;20.73;;
9884;SDS011;4981;50.966;4.842;2022-12-10T02:08:10;37.57;;;20.77;;
9884;SDS011;4981;50.966;4.842;2022-12-10T02:10:46;38.27;;;20.30;;
9884;SDS011;4981;50.966;4.842;2022-12-10T02:13:22;39.57;;;21.77;;
9884;SDS011;4981;50.966;4.842;2022-12-10T02:15:55;37.77;;;20.27;;
9884;SDS011;4981;50.966;4.842;2022-12-10T02:18:30;39.90;;;21.97;;
9884;SDS011;4981;50.966;4.842;2022-12-10T02:21:03;40.37;;;21.77;;
9884;SDS011;4981;50.966;4.842;2022-12-10T02:23:37;39.70;;;21.47;;
9884;SDS011;4981;50.966;4.842;2022-12-10T02:26:11;47.57;;;24.20;;
9884;SDS011;4981;50.966;4.842;2022-12-10T02:28:44;36.43;;;20.90;;
9884;SDS011;4981;50.966;4.842;2022-12-10T02:31:21;37.50;;;20.57;;
9884;SDS011;4981;50.966;4.842;2022-12-10T02:33:51;39.13;;;21.33;;
9884;SDS011;4981;50.966;4.842;2022-12-10T02:36:21;41.27;;;22.50;;
9884;SDS011;4981;50.966;4.842;2022-12-10T02:38:52;39.73;;;22.27;;
9884;SDS011;4981;50.966;4.842;2022-12-10T02:41:22;44.73;;;23.40;;
9884;SDS011;4981;50.966;4.842;2022-12-10T02:43:54;46.17;;;24.07;;
9884;SDS011;4981;50.966;4.842;2022-12-10T02:46:26;42.77;;;22.80;;
9884;SDS011;4981;50.966;4.842;2022-12-10T02:48:55;43.47;;;22.73;;
9884;SDS011;4981;50.966;4.842;2022-12-10T02:51:24;44.67;;;23.33;;
9884;SDS011;4981;50.966;4.842;2022-12-10T02:53:58;46.63;;;23.43;;
9884;SDS011;4981;50.966;4.842;2022-12-10T02:56:29;43.27;;;24.17;;
9884;SDS011;4981;50.966;4.842;2022-12-10T02:59:04;48.03;;;23.47;;
9884;SDS011;4981;50.966;4.842;2022-12-10T03:01:41;44.43;;;22.63;;
9884;SDS011;4981;50.966;4.842;2022-12-10T03:04:16;45.73;;;23.10;;
9884;SDS011;4981;50.966;4.842;2022-12-10T03:06:50;39.53;;;21.67;;
9884;SDS011;4981;50.966;4.842;2022-12-10T03:09:19;42.67;;;22.13;;
9884;SDS011;4981;50.966;4.842;2022-12-10T03:11:55;39.83;;;21.17;;
9884;SDS011;4981;50.966;4.842;2022-12-10T03:14:25;41.20;;;20.70;;
9884;SDS011;4981;50.966;4.842;2022-12-10T03:16:57;42.87;;;21.57;;
9884;SDS011;4981;50.966;4.842;2022-12-10T03:19:27;37.47;;;20.73;;
9884;SDS011;4981;50.966;4.842;2022-12-10T03:21:59;47.53;;;22.97;;
9884;SDS011;4981;50.966;4.842;2022-12-10T03:24:29;40.77;;;20.23;;
9884;SDS011;4981;50.966;4.842;2022-12-10T03:26:59;37.63;;;20.10;;
9884;SDS011;4981;50.966;4.842;2022-12-10T03:29:28;30.87;;;16.83;;
9884;SDS011;4981;50.966;4.842;2022-12-10T03:32:02;35.47;;;18.37;;
9884;SDS011;4981;50.966;4.842;2022-12-10T03:34:30;35.80;;;19.50;;
9884;SDS011;4981;50.966;4.842;2022-12-10T03:36:59;40.97;;;21.67;;
9884;SDS011;4981;50.966;4.842;2022-12-10T03:39:28;43.23;;;22.27;;
9884;SDS011;4981;50.966;4.842;2022-12-10T03:41:55;44.73;;;22.80;;
9884;SDS011;4981;50.966;4.842;2022-12-10T03:44:29;40.23;;;20.67;;
9884;SDS011;4981;50.966;4.842;2022-12-10T03:46:57;37.13;;;19.87;;
9884;SDS011;4981;50.966;4.842;2022-12-10T03:49:26;39.80;;;19.87;;
9884;SDS011;4981;50.966;4.842;2022-12-10T03:51:53;40.27;;;19.63;;
9884;SDS011;4981;50.966;4.842;2022-12-10T03:54:20;40.33;;;20.00;;
9884;SDS011;4981;50.966;4.842;2022-12-10T03:56:48;40.20;;;21.47;;
9884;SDS011;4981;50.966;4.842;2022-12-10T03:59:15;44.27;;;23.43;;
9884;SDS011;4981;50.966;4.842;2022-12-10T04:01:42;39.50;;;20.60;;
9884;SDS011;4981;50.966;4.842;2022-12-10T04:04:09;37.47;;;19.77;;
9884;SDS011;4981;50.966;4.842;2022-12-10T04:06:38;39.93;;;20.43;;
9884;SDS011;4981;50.966;4.842;2022-12-10T04:09:05;38.70;;;19.70;;
9884;SDS011;4981;50.966;4.842;2022-12-10T04:11:33;42.17;;;21.10;;
9884;SDS011;4981;50.966;4.842;2022-12-10T04:14:00;39.20;;;20.07;;
9884;SDS011;4981;50.966;4.842;2022-12-10T04:16:53;38.33;;;20.10;;
9884;SDS011;4981;50.966;4.842;2022-12-10T04:19:20;41.80;;;21.13;;
9884;SDS011;4981;50.966;4.842;2022-12-10T04:21:48;43.60;;;20.73;;
9884;SDS011;4981;50.966;4.842;2022-12-10T04:24:33;39.40;;;21.37;;
9884;SDS011;4981;50.966;4.842;2022-12-10T04:27:20;39.07;;;20.13;;
9884;SDS011;4981;50.966;4.842;2022-12-10T04:29:48;38.63;;;21.20;;
9884;SDS011;4981;50.966;4.842;2022-12-10T04:32:16;41.53;;;21.03;;
9884;SDS011;4981;50.966;4.842;2022-12-10T04:34:44;43.53;;;21.03;;
9884;SDS011;4981;50.966;4.842;2022-12-10T04:37:13;39.87;;;20.13;;
9884;SDS011;4981;50.966;4.842;2022-12-10T04:39:41;49.43;;;22.83;;
9884;SDS011;4981;50.966;4.842;2022-12-10T04:42:08;39.27;;;21.23;;
9884;SDS011;4981;50.966;4.842;2022-12-10T04:44:35;42.47;;;21.90;;
9884;SDS011;4981;50.966;4.842;2022-12-10T04:47:03;40.03;;;21.47;;
9884;SDS011;4981;50.966;4.842;2022-12-10T04:49:31;47.80;;;22.17;;
9884;SDS011;4981;50.966;4.842;2022-12-10T04:51:58;42.70;;;21.30;;
9884;SDS011;4981;50.966;4.842;2022-12-10T04:54:27;44.07;;;22.00;;
9884;SDS011;4981;50.966;4.842;2022-12-10T04:56:54;45.63;;;21.83;;
9884;SDS011;4981;50.966;4.842;2022-12-10T04:59:22;41.30;;;20.80;;
9884;SDS011;4981;50.966;4.842;2022-12-10T05:01:49;46.03;;;22.67;;
9884;SDS011;4981;50.966;4.842;2022-12-10T05:04:17;43.97;;;21.23;;
9884;SDS011;4981;50.966;4.842;2022-12-10T05:06:46;44.27;;;21.53;;
9884;SDS011;4981;50.966;4.842;2022-12-10T05:09:14;38.77;;;19.33;;
9884;SDS011;4981;50.966;4.842;2022-12-10T05:11:43;36.87;;;19.20;;
9884;SDS011;4981;50.966;4.842;2022-12-10T05:14:11;36.17;;;19.37;;
9884;SDS011;4981;50.966;4.842;2022-12-10T05:16:40;36.77;;;18.90;;
9884;SDS011;4981;50.966;4.842;2022-12-10T05:19:08;42.03;;;21.20;;
9884;SDS011;4981;50.966;4.842;2022-12-10T05:21:36;39.73;;;19.77;;
9884;SDS011;4981;50.966;4.842;2022-12-10T05:24:20;48.97;;;23.93;;
9884;SDS011;4981;50.966;4.842;2022-12-10T05:26:49;61.00;;;21.37;;
9884;SDS011;4981;50.966;4.842;2022-12-10T05:29:17;51.67;;;20.47;;
9884;SDS011;4981;50.966;4.842;2022-12-10T05:31:45;44.20;;;21.57;;
9884;SDS011;4981;50.966;4.842;2022-12-10T05:34:12;44.93;;;21.70;;
9884;SDS011;4981;50.966;4.842;2022-12-10T05:36:39;63.60;;;23.07;;
9884;SDS011;4981;50.966;4.842;2022-12-10T05:39:07;50.77;;;22.93;;
9884;SDS011;4981;50.966;4.842;2022-12-10T05:41:36;62.87;;;25.77;;
9884;SDS011;4981;50.966;4.842;2022-12-10T05:44:06;51.43;;;24.13;;
9884;SDS011;4981;50.966;4.842;2022-12-10T05:46:35;95.70;;;24.03;;
9884;SDS011;4981;50.966;4.842;2022-12-10T05:49:03;138.93;;;26.23;;
9884;SDS011;4981;50.966;4.842;2022-12-10T05:51:32;67.60;;;25.70;;
9884;SDS011;4981;50.966;4.842;2022-12-10T05:54:00;66.37;;;24.77;;
9884;SDS011;4981;50.966;4.842;2022-12-10T05:56:28;60.13;;;25.07;;
9884;SDS011;4981;50.966;4.842;2022-12-10T05:58:57;54.43;;;23.73;;
9884;SDS011;4981;50.966;4.842;2022-12-10T06:01:28;56.93;;;25.60;;
9884;SDS011;4981;50.966;4.842;2022-12-10T06:03:57;64.57;;;24.00;;
9884;SDS011;4981;50.966;4.842;2022-12-10T06:06:25;49.90;;;23.17;;
9884;SDS011;4981;50.966;4.842;2022-12-10T06:08:53;54.37;;;25.43;;
9884;SDS011;4981;50.966;4.842;2022-12-10T06:11:22;55.00;;;24.87;;
9884;SDS011;4981;50.966;4.842;2022-12-10T06:13:49;51.17;;;24.03;;
9884;SDS011;4981;50.966;4.842;2022-12-10T06:16:17;59.63;;;24.47;;
9884;SDS011;4981;50.966;4.842;2022-12-10T06:18:45;59.23;;;23.40;;
9884;SDS011;4981;50.966;4.842;2022-12-10T06:21:13;65.67;;;24.00;;
9884;SDS011;4981;50.966;4.842;2022-12-10T06:23:41;69.77;;;23.13;;
9884;SDS011;4981;50.966;4.842;2022-12-10T06:26:10;72.17;;;24.37;;
9884;SDS011;4981;50.966;4.842;2022-12-10T06:28:39;59.93;;;26.83;;
9884;SDS011;4981;50.966;4.842;2022-12-10T06:31:07;59.20;;;24.70;;
9884;SDS011;4981;50.966;4.842;2022-12-10T06:33:34;63.17;;;25.50;;
9884;SDS011;4981;50.966;4.842;2022-12-10T06:36:04;95.40;;;25.57;;
9884;SDS011;4981;50.966;4.842;2022-12-10T06:38:33;60.43;;;26.53;;
9884;SDS011;4981;50.966;4.842;2022-12-10T06:41:01;66.27;;;25.37;;
9884;SDS011;4981;50.966;4.842;2022-12-10T06:43:31;101.87;;;25.70;;
9884;SDS011;4981;50.966;4.842;2022-12-10T06:45:58;138.33;;;64.70;;
9884;SDS011;4981;50.966;4.842;2022-12-10T06:48:25;97.27;;;36.57;;
9884;SDS011;4981;50.966;4.842;2022-12-10T06:50:52;141.47;;;30.37;;
9884;SDS011;4981;50.966;4.842;2022-12-10T06:53:23;70.20;;;28.80;;
9884;SDS011;4981;50.966;4.842;2022-12-10T06:55:50;90.97;;;26.33;;
9884;SDS011;4981;50.966;4.842;2022-12-10T06:58:17;84.67;;;26.70;;
9884;SDS011;4981;50.966;4.842;2022-12-10T07:00:44;106.43;;;28.97;;
9884;SDS011;4981;50.966;4.842;2022-12-10T07:03:11;76.60;;;27.00;;
9884;SDS011;4981;50.966;4.842;2022-12-10T07:05:38;142.77;;;25.77;;
9884;SDS011;4981;50.966;4.842;2022-12-10T07:08:05;155.20;;;26.73;;
9884;SDS011;4981;50.966;4.842;2022-12-10T07:10:35;139.77;;;27.80;;
9884;SDS011;4981;50.966;4.842;2022-12-10T07:13:03;164.83;;;27.33;;
9884;SDS011;4981;50.966;4.842;2022-12-10T07:15:30;76.07;;;27.10;;
9884;SDS011;4981;50.966;4.842;2022-12-10T07:17:57;232.53;;;29.37;;
9884;SDS011;4981;50.966;4.842;2022-12-10T07:20:25;166.60;;;27.50;;
9884;SDS011;4981;50.966;4.842;2022-12-10T07:22:52;176.93;;;28.80;;
9884;SDS011;4981;50.966;4.842;2022-12-10T07:25:19;95.90;;;29.90;;
9884;SDS011;4981;50.966;4.842;2022-12-10T07:27:47;116.03;;;33.87;;
9884;SDS011;4981;50.966;4.842;2022-12-10T07:30:14;127.77;;;32.20;;
9884;SDS011;4981;50.966;4.842;2022-12-10T07:32:41;107.97;;;29.57;;
9884;SDS011;4981;50.966;4.842;2022-12-10T07:35:08;209.17;;;25.37;;
9884;SDS011;4981;50.966;4.842;2022-12-10T07:37:36;183.40;;;26.67;;
9884;SDS011;4981;50.966;4.842;2022-12-10T07:40:03;171.50;;;26.00;;
9884;SDS011;4981;50.966;4.842;2022-12-10T07:42:31;191.07;;;25.67;;
9884;SDS011;4981;50.966;4.842;2022-12-10T07:45:00;165.63;;;25.40;;
9884;SDS011;4981;50.966;4.842;2022-12-10T07:47:27;120.17;;;24.07;;
9884;SDS011;4981;50.966;4.842;2022-12-10T07:49:53;100.83;;;22.30;;
9884;SDS011;4981;50.966;4.842;2022-12-10T07:52:20;145.27;;;23.93;;
9884;SDS011;4981;50.966;4.842;2022-12-10T07:54:48;83.17;;;21.73;;
9884;SDS011;4981;50.966;4.842;2022-12-10T07:57:15;70.10;;;25.40;;
9884;SDS011;4981;50.966;4.842;2022-12-10T07:59:42;124.27;;;24.27;;
9884;SDS011;4981;50.966;4.842;2022-12-10T08:02:10;96.13;;;25.23;;
9884;SDS011;4981;50.966;4.842;2022-12-10T08:04:37;86.07;;;25.40;;
9884;SDS011;4981;50.966;4.842;2022-12-10T08:07:05;123.63;;;25.37;;
9884;SDS011;4981;50.966;4.842;2022-12-10T08:09:33;105.27;;;27.67;;
9884;SDS011;4981;50.966;4.842;2022-12-10T08:12:00;179.20;;;23.17;;
9884;SDS011;4981;50.966;4.842;2022-12-10T08:14:27;111.10;;;24.43;;
9884;SDS011;4981;50.966;4.842;2022-12-10T08:16:55;79.03;;;21.13;;
9884;SDS011;4981;50.966;4.842;2022-12-10T08:19:23;70.80;;;28.10;;
9884;SDS011;4981;50.966;4.842;2022-12-10T08:21:50;116.90;;;25.40;;
9884;SDS011;4981;50.966;4.842;2022-12-10T08:24:17;132.17;;;28.43;;
9884;SDS011;4981;50.966;4.842;2022-12-10T08:26:44;157.90;;;28.30;;
9884;SDS011;4981;50.966;4.842;2022-12-10T08:29:11;156.30;;;25.10;;
9884;SDS011;4981;50.966;4.842;2022-12-10T08:31:39;219.90;;;25.30;;
9884;SDS011;4981;50.966;4.842;2022-12-10T08:34:09;154.17;;;25.90;;
9884;SDS011;4981;50.966;4.842;2022-12-10T08:36:40;132.93;;;28.00;;
9884;SDS011;4981;50.966;4.842;2022-12-10T08:39:08;130.83;;;26.30;;
9884;SDS011;4981;50.966;4.842;2022-12-10T08:41:40;266.80;;;28.60;;
9884;SDS011;4981;50.966;4.842;2022-12-10T08:44:08;197.40;;;55.37;;
9884;SDS011;4981;50.966;4.842;2022-12-10T08:46:35;168.90;;;27.40;;
9884;SDS011;4981;50.966;4.842;2022-12-10T08:49:03;170.20;;;24.40;;
9884;SDS011;4981;50.966;4.842;2022-12-10T08:51:31;219.20;;;26.33;;
9884;SDS011;4981;50.966;4.842;2022-12-10T08:54:00;126.13;;;29.40;;
9884;SDS011;4981;50.966;4.842;2022-12-10T08:56:27;112.30;;;25.60;;
9884;SDS011;4981;50.966;4.842;2022-12-10T08:58:54;199.30;;;25.60;;
9884;SDS011;4981;50.966;4.842;2022-12-10T09:01:22;181.07;;;27.97;;
9884;SDS011;4981;50.966;4.842;2022-12-10T09:03:49;171.87;;;24.37;;
9884;SDS011;4981;50.966;4.842;2022-12-10T09:06:17;116.13;;;25.50;;
9884;SDS011;4981;50.966;4.842;2022-12-10T09:08:46;143.00;;;24.93;;
9884;SDS011;4981;50.966;4.842;2022-12-10T09:11:15;143.27;;;25.97;;
9884;SDS011;4981;50.966;4.842;2022-12-10T09:13:44;189.90;;;30.83;;
9884;SDS011;4981;50.966;4.842;2022-12-10T09:16:12;176.07;;;27.93;;
9884;SDS011;4981;50.966;4.842;2022-12-10T09:18:39;202.20;;;30.40;;
9884;SDS011;4981;50.966;4.842;2022-12-10T09:21:07;259.73;;;31.33;;
9884;SDS011;4981;50.966;4.842;2022-12-10T09:23:37;136.17;;;30.83;;
9884;SDS011;4981;50.966;4.842;2022-12-10T09:26:06;134.00;;;29.23;;
9884;SDS011;4981;50.966;4.842;2022-12-10T09:28:35;211.00;;;29.77;;
9884;SDS011;4981;50.966;4.842;2022-12-10T09:31:03;109.23;;;28.43;;
9884;SDS011;4981;50.966;4.842;2022-12-10T09:33:36;156.07;;;25.83;;
9884;SDS011;4981;50.966;4.842;2022-12-10T09:36:04;138.97;;;27.40;;
9884;SDS011;4981;50.966;4.842;2022-12-10T09:38:33;96.80;;;27.30;;
9884;SDS011;4981;50.966;4.842;2022-12-10T09:41:01;66.90;;;28.30;;
9884;SDS011;4981;50.966;4.842;2022-12-10T09:43:34;120.67;;;24.87;;
9884;SDS011;4981;50.966;4.842;2022-12-10T09:46:15;83.87;;;28.00;;
9884;SDS011;4981;50.966;4.842;2022-12-10T09:48:52;67.40;;;23.97;;
9884;SDS011;4981;50.966;4.842;2022-12-10T09:51:29;92.50;;;23.90;;
9884;SDS011;4981;50.966;4.842;2022-12-10T09:53:58;86.33;;;23.50;;
9884;SDS011;4981;50.966;4.842;2022-12-10T09:56:28;119.23;;;26.33;;
9884;SDS011;4981;50.966;4.842;2022-12-10T09:59:02;69.63;;;24.67;;
9884;SDS011;4981;50.966;4.842;2022-12-10T10:01:37;85.83;;;24.80;;
9884;SDS011;4981;50.966;4.842;2022-12-10T10:04:05;81.53;;;22.43;;
9884;SDS011;4981;50.966;4.842;2022-12-10T10:06:32;55.70;;;21.80;;
9884;SDS011;4981;50.966;4.842;2022-12-10T10:09:00;110.17;;;23.37;;
9884;SDS011;4981;50.966;4.842;2022-12-10T10:11:29;68.37;;;24.23;;
9884;SDS011;4981;50.966;4.842;2022-12-10T10:13:59;60.93;;;23.27;;
9884;SDS011;4981;50.966;4.842;2022-12-10T10:16:32;64.87;;;24.60;;
9884;SDS011;4981;50.966;4.842;2022-12-10T10:19:02;75.30;;;25.10;;
9884;SDS011;4981;50.966;4.842;2022-12-10T10:21:32;102.87;;;23.13;;
9884;SDS011;4981;50.966;4.842;2022-12-10T10:24:03;61.30;;;22.20;;
9884;SDS011;4981;50.966;4.842;2022-12-10T10:26:31;65.13;;;24.13;;
9884;SDS011;4981;50.966;4.842;2022-12-10T10:29:00;90.87;;;24.67;;
9884;SDS011;4981;50.966;4.842;2022-12-10T10:31:32;54.70;;;23.77;;
9884;SDS011;4981;50.966;4.842;2022-12-10T10:34:02;71.07;;;25.10;;
9884;SDS011;4981;50.966;4.842;2022-12-10T10:36:31;57.30;;;21.93;;
9884;SDS011;4981;50.966;4.842;2022-12-10T10:39:07;60.83;;;21.20;;
9884;SDS011;4981;50.966;4.842;2022-12-10T10:41:37;178.70;;;22.77;;
9884;SDS011;4981;50.966;4.842;2022-12-10T10:44:15;55.93;;;20.97;;
9884;SDS011;4981;50.966;4.842;2022-12-10T10:46:44;160.53;;;23.87;;
9884;SDS011;4981;50.966;4.842;2022-12-10T10:49:19;65.33;;;22.10;;
9884;SDS011;4981;50.966;4.842;2022-12-10T10:51:49;73.83;;;23.70;;
9884;SDS011;4981;50.966;4.842;2022-12-10T10:54:33;49.43;;;21.47;;
9884;SDS011;4981;50.966;4.842;2022-12-10T10:57:05;50.17;;;22.47;;
9884;SDS011;4981;50.966;4.842;2022-12-10T10:59:39;90.07;;;20.43;;
9884;SDS011;4981;50.966;4.842;2022-12-10T11:02:15;91.33;;;21.13;;
9884;SDS011;4981;50.966;4.842;2022-12-10T11:04:46;81.73;;;21.20;;
9884;SDS011;4981;50.966;4.842;2022-12-10T11:07:19;54.93;;;22.83;;
9884;SDS011;4981;50.966;4.842;2022-12-10T11:09:50;41.63;;;18.67;;
9884;SDS011;4981;50.966;4.842;2022-12-10T11:12:21;54.37;;;21.73;;
9884;SDS011;4981;50.966;4.842;2022-12-10T11:14:56;55.73;;;25.20;;
9884;SDS011;4981;50.966;4.842;2022-12-10T11:17:24;97.20;;;25.27;;
9884;SDS011;4981;50.966;4.842;2022-12-10T11:19:53;60.23;;;21.97;;
9884;SDS011;4981;50.966;4.842;2022-12-10T11:22:23;67.77;;;20.63;;
9884;SDS011;4981;50.966;4.842;2022-12-10T11:24:52;42.87;;;19.83;;
9884;SDS011;4981;50.966;4.842;2022-12-10T11:27:30;57.10;;;21.93;;
9884;SDS011;4981;50.966;4.842;2022-12-10T11:30:16;44.30;;;20.83;;
9884;SDS011;4981;50.966;4.842;2022-12-10T11:32:52;44.63;;;19.70;;
9884;SDS011;4981;50.966;4.842;2022-12-10T11:35:31;45.57;;;20.90;;
9884;SDS011;4981;50.966;4.842;2022-12-10T11:38:06;45.13;;;22.53;;
9884;SDS011;4981;50.966;4.842;2022-12-10T11:40:42;46.97;;;23.27;;
9884;SDS011;4981;50.966;4.842;2022-12-10T11:43:27;46.70;;;20.97;;
9884;SDS011;4981;50.966;4.842;2022-12-10T11:46:19;55.87;;;24.87;;
9884;SDS011;4981;50.966;4.842;2022-12-10T11:49:00;60.93;;;23.07;;
9884;SDS011;4981;50.966;4.842;2022-12-10T11:51:39;61.10;;;23.43;;
9884;SDS011;4981;50.966;4.842;2022-12-10T11:54:20;62.20;;;23.73;;
9884;SDS011;4981;50.966;4.842;2022-12-10T11:57:00;52.73;;;24.10;;
9884;SDS011;4981;50.966;4.842;2022-12-10T11:59:36;52.53;;;24.10;;
9884;SDS011;4981;50.966;4.842;2022-12-10T12:02:18;59.93;;;23.77;;
9884;SDS011;4981;50.966;4.842;2022-12-10T12:05:16;59.67;;;23.90;;
9884;SDS011;4981;50.966;4.842;2022-12-10T12:07:55;50.63;;;21.60;;
9884;SDS011;4981;50.966;4.842;2022-12-10T12:13:28;55.07;;;25.03;;
9884;SDS011;4981;50.966;4.842;2022-12-10T12:16:01;53.90;;;23.80;;
9884;SDS011;4981;50.966;4.842;2022-12-10T12:18:38;51.50;;;23.67;;
9884;SDS011;4981;50.966;4.842;2022-12-10T12:21:10;57.80;;;22.90;;
9884;SDS011;4981;50.966;4.842;2022-12-10T12:23:43;47.03;;;22.83;;
9884;SDS011;4981;50.966;4.842;2022-12-10T12:26:15;70.90;;;24.67;;
9884;SDS011;4981;50.966;4.842;2022-12-10T12:28:47;65.13;;;23.80;;
9884;SDS011;4981;50.966;4.842;2022-12-10T12:31:20;62.97;;;22.30;;
9884;SDS011;4981;50.966;4.842;2022-12-10T12:33:53;53.30;;;25.07;;
9884;SDS011;4981;50.966;4.842;2022-12-10T12:36:26;52.30;;;24.20;;
9884;SDS011;4981;50.966;4.842;2022-12-10T12:38:58;63.70;;;25.70;;
9884;SDS011;4981;50.966;4.842;2022-12-10T12:41:30;50.80;;;23.40;;
9884;SDS011;4981;50.966;4.842;2022-12-10T12:44:04;54.77;;;23.60;;
9884;SDS011;4981;50.966;4.842;2022-12-10T12:46:38;50.23;;;23.50;;
9884;SDS011;4981;50.966;4.842;2022-12-10T12:49:13;46.80;;;22.17;;
9884;SDS011;4981;50.966;4.842;2022-12-10T12:51:48;49.23;;;22.33;;
9884;SDS011;4981;50.966;4.842;2022-12-10T12:54:20;43.83;;;21.43;;
9884;SDS011;4981;50.966;4.842;2022-12-10T12:59:45;47.97;;;21.87;;
9884;SDS011;4981;50.966;4.842;2022-12-10T13:02:22;54.10;;;24.80;;
9884;SDS011;4981;50.966;4.842;2022-12-10T13:05:13;44.27;;;21.07;;
9884;SDS011;4981;50.966;4.842;2022-12-10T13:10:59;50.93;;;21.83;;
9884;SDS011;4981;50.966;4.842;2022-12-10T13:13:42;44.07;;;22.07;;
9884;SDS011;4981;50.966;4.842;2022-12-10T13:16:36;46.43;;;22.00;;
9884;SDS011;4981;50.966;4.842;2022-12-10T13:19:22;51.37;;;25.07;;
9884;SDS011;4981;50.966;4.842;2022-12-10T13:22:07;52.80;;;22.90;;
9884;SDS011;4981;50.966;4.842;2022-12-10T13:24:44;52.97;;;24.73;;
9884;SDS011;4981;50.966;4.842;2022-12-10T13:27:17;49.17;;;23.93;;
9884;SDS011;4981;50.966;4.842;2022-12-10T13:29:46;52.37;;;23.43;;
9884;SDS011;4981;50.966;4.842;2022-12-10T13:32:21;47.93;;;22.17;;
9884;SDS011;4981;50.966;4.842;2022-12-10T13:37:55;48.90;;;22.67;;
9884;SDS011;4981;50.966;4.842;2022-12-10T13:40:37;44.70;;;21.57;;
9884;SDS011;4981;50.966;4.842;2022-12-10T13:43:25;43.90;;;21.40;;
9884;SDS011;4981;50.966;4.842;2022-12-10T13:46:20;46.67;;;20.83;;
9884;SDS011;4981;50.966;4.842;2022-12-10T13:48:49;46.67;;;22.30;;
9884;SDS011;4981;50.966;4.842;2022-12-10T13:51:21;49.57;;;21.80;;
9884;SDS011;4981;50.966;4.842;2022-12-10T13:54:01;45.33;;;21.73;;
9884;SDS011;4981;50.966;4.842;2022-12-10T13:56:38;45.97;;;21.60;;
9884;SDS011;4981;50.966;4.842;2022-12-10T13:59:23;47.10;;;21.17;;
9884;SDS011;4981;50.966;4.842;2022-12-10T14:01:59;48.67;;;22.63;;
9884;SDS011;4981;50.966;4.842;2022-12-10T14:04:45;54.57;;;25.80;;
9884;SDS011;4981;50.966;4.842;2022-12-10T14:07:32;55.97;;;27.20;;
9884;SDS011;4981;50.966;4.842;2022-12-10T14:10:02;50.67;;;23.87;;
9884;SDS011;4981;50.966;4.842;2022-12-10T14:12:35;42.57;;;20.53;;
9884;SDS011;4981;50.966;4.842;2022-12-10T14:15:06;46.17;;;21.77;;
9884;SDS011;4981;50.966;4.842;2022-12-10T14:17:36;61.10;;;29.17;;
9884;SDS011;4981;50.966;4.842;2022-12-10T14:20:06;55.30;;;25.80;;
9884;SDS011;4981;50.966;4.842;2022-12-10T14:22:37;52.07;;;24.50;;
9884;SDS011;4981;50.966;4.842;2022-12-10T14:25:11;54.57;;;27.23;;
9884;SDS011;4981;50.966;4.842;2022-12-10T14:27:40;46.83;;;22.17;;
9884;SDS011;4981;50.966;4.842;2022-12-10T14:30:14;46.40;;;21.93;;
9884;SDS011;4981;50.966;4.842;2022-12-10T14:32:43;46.43;;;21.33;;
9884;SDS011;4981;50.966;4.842;2022-12-10T14:35:12;43.17;;;20.50;;
9884;SDS011;4981;50.966;4.842;2022-12-10T14:37:41;49.13;;;20.73;;
9884;SDS011;4981;50.966;4.842;2022-12-10T14:40:17;38.80;;;20.20;;
9884;SDS011;4981;50.966;4.842;2022-12-10T14:42:49;43.10;;;20.60;;
9884;SDS011;4981;50.966;4.842;2022-12-10T14:45:19;41.27;;;20.43;;
9884;SDS011;4981;50.966;4.842;2022-12-10T14:47:46;37.90;;;18.93;;
9884;SDS011;4981;50.966;4.842;2022-12-10T14:50:15;39.00;;;20.13;;
9884;SDS011;4981;50.966;4.842;2022-12-10T14:52:44;41.27;;;20.73;;
9884;SDS011;4981;50.966;4.842;2022-12-10T14:55:17;44.20;;;20.13;;
9884;SDS011;4981;50.966;4.842;2022-12-10T14:57:48;39.70;;;19.33;;
9884;SDS011;4981;50.966;4.842;2022-12-10T15:00:21;24.97;;;12.87;;
9884;SDS011;4981;50.966;4.842;2022-12-10T15:02:51;34.30;;;16.90;;
9884;SDS011;4981;50.966;4.842;2022-12-10T15:05:21;33.70;;;17.03;;
9884;SDS011;4981;50.966;4.842;2022-12-10T15:07:52;38.87;;;19.70;;
9884;SDS011;4981;50.966;4.842;2022-12-10T15:10:24;40.60;;;21.00;;
9884;SDS011;4981;50.966;4.842;2022-12-10T15:12:55;43.50;;;21.40;;
9884;SDS011;4981;50.966;4.842;2022-12-10T15:15:24;41.07;;;20.67;;
9884;SDS011;4981;50.966;4.842;2022-12-10T15:17:58;42.17;;;20.43;;
9884;SDS011;4981;50.966;4.842;2022-12-10T15:20:27;40.80;;;20.53;;
9884;SDS011;4981;50.966;4.842;2022-12-10T15:23:19;39.80;;;20.57;;